Aeroporto :
LOGIN :

Iscrizione | Disclaimer

   EN    FR    IT 

 










Sommario :    VFR   VFR Marginale   IFR   IFR Intensivo   IFR Molto Intensivo
Visibilità : 
Base nubi : 
>= 8 km
>= 3000ft
5 / 8 km
1000 / 3000 ft
1500m / 5 km
500 / 1000 ft
800 / 1500m
200 / 500 ft
< 800m
< 200 ft
Simboli :   Temporali  Nebbia  Neve Forte  Precipitazioni Forti  Vento > 20 kt
SIGMETs :   Varie  Temporali  Ghiacco  Turbolenza  Onda orograficha  Ceneri Vulcaniche






- Altitudine del aeroporto : 53 ft
- Codice IATA : HAM


EDDH - Hamburg

ULTIMO METAR :
  • 171220Z 22009KT 9999 SCT011 BKN033 16/14 Q1009 TEMPO RADZ BKN008

METARs OBSOLETI :
  • 171150Z 22008KT 9999 BKN011 15/13 Q1009 TEMPO RADZ BKN008
  • 171120Z 22011KT 9999 BKN011 15/13 Q1009 TEMPO BKN008
  • 171050Z 22012KT 9000 -DZ BKN009 15/13 Q1009 BECMG BKN012
  • 171020Z 22012KT 9999 -DZ BKN009 15/13 Q1009 BECMG BKN012
  • 170950Z 22011KT 9000 -DZ BKN008 15/13 Q1009 TEMPO 4000

TAF COR TAF EDDH
Valido dal 17 a 12 ore il 18 a 18 ore UTC


171122Z 1712/1818 21010KT 9999 BKN008
BECMG 1712/1715 BKN030
BECMG 1716/1719 BKN012
TEMPO 1722/1808 4000 -RA BKN008
BECMG 1808/1810 BKN030
TEMPO 1812/1818 23015G25KT 4000 SHRA BKN020CB
PROB40
TEMPO 1814/1817 23015G35KT 2000 TSRA BKN012CB



MetMap, La meteo Aeronautica in un colpo d'occhio ! - Copyright ORBIFLY Dicembre 2007 - Disclaimer

ORBIFLY MET'MAP TEAM :

Programmazione e sviluppo : Alexandra Zaïnal
Concezione e sviluppo : Baudouin d'Aumeries
Co-Programmazione e sviluppo : Marc-Olivier Méhu
Supporto tecnico e logistico : Manuel Goepfert
Aiuto per la traduzione : Arnaldo La Scala

Contatto : metmap@orbifly.com




FONTI E CREDITI :

   NOAA